createdAt,value
2022-11-17T00:00:44.363Z,85.36
2022-11-17T00:03:15.583Z,84.07
2022-11-17T00:05:45.433Z,84.59
2022-11-17T00:08:13.328Z,85.72
2022-11-17T00:10:41.162Z,86.00
2022-11-17T00:13:28.611Z,84.33
2022-11-17T00:15:56.579Z,83.79
2022-11-17T00:18:41.682Z,83.72
2022-11-17T00:21:23.836Z,84.44
2022-11-17T00:23:51.894Z,83.99
2022-11-17T00:26:21.381Z,84.23
2022-11-17T00:28:51.950Z,85.10
2022-11-17T00:31:37.523Z,84.39
2022-11-17T00:34:08.475Z,84.28
2022-11-17T00:36:40.087Z,83.11
2022-11-17T00:39:08.385Z,83.47
2022-11-17T00:41:36.444Z,83.99
2022-11-17T00:44:04.846Z,83.84
2022-11-17T00:46:33.303Z,83.19
2022-11-17T00:49:01.237Z,83.97
2022-11-17T00:51:29.441Z,84.38
2022-11-17T00:53:58.648Z,84.35
2022-11-17T00:56:26.797Z,84.33
2022-11-17T00:58:54.807Z,85.09
2022-11-17T01:01:23.106Z,83.81
2022-11-17T01:03:51.192Z,84.51
2022-11-17T01:06:21.037Z,84.59
2022-11-17T01:08:48.838Z,84.50
2022-11-17T01:11:20.210Z,84.68
2022-11-17T01:13:48.888Z,84.36
2022-11-17T01:16:19.490Z,84.14
2022-11-17T01:18:50.008Z,84.87
2022-11-17T01:21:20.015Z,84.19
2022-11-17T01:23:48.783Z,84.78
2022-11-17T01:26:20.820Z,84.04
2022-11-17T01:28:49.667Z,83.79
2022-11-17T01:31:19.435Z,84.50
2022-11-17T01:33:48.019Z,84.54
2022-11-17T01:36:17.570Z,83.85
2022-11-17T01:38:46.172Z,84.15
2022-11-17T01:41:17.921Z,83.76
2022-11-17T01:43:50.517Z,83.66
2022-11-17T01:46:32.125Z,83.65
2022-11-17T01:49:04.700Z,83.60
2022-11-17T01:51:36.512Z,83.41
2022-11-17T01:54:04.697Z,83.19
2022-11-17T01:56:35.870Z,84.09
2022-11-17T01:59:12.534Z,83.65
2022-11-17T02:01:55.578Z,84.29
2022-11-17T02:04:25.643Z,84.95
2022-11-17T02:06:58.385Z,84.89
2022-11-17T02:09:27.150Z,84.63
2022-11-17T02:11:57.641Z,84.86
2022-11-17T02:14:26.890Z,84.73
2022-11-17T02:16:54.763Z,84.53
2022-11-17T02:19:23.781Z,83.87
2022-11-17T02:22:10.414Z,84.88
2022-11-17T02:25:00.629Z,83.41
2022-11-17T02:28:04.102Z,83.87
2022-11-17T02:30:38.994Z,84.46
2022-11-17T02:33:17.158Z,85.14
2022-11-17T02:35:51.022Z,84.21
2022-11-17T02:38:28.948Z,84.27
2022-11-17T02:41:02.808Z,84.83
2022-11-17T02:43:54.541Z,84.93
2022-11-17T02:46:25.069Z,85.56
2022-11-17T02:48:56.855Z,85.63
2022-11-17T02:51:25.747Z,85.62
2022-11-17T02:53:56.370Z,86.29
2022-11-17T02:56:24.680Z,86.32
2022-11-17T02:58:58.946Z,86.18
2022-11-17T03:01:49.085Z,86.36
2022-11-17T03:04:41.109Z,86.13
2022-11-17T03:07:21.686Z,86.73
2022-11-17T03:10:00.435Z,86.55
2022-11-17T03:12:35.165Z,86.52
2022-11-17T03:15:14.735Z,86.65
2022-11-17T03:17:49.719Z,86.64
2022-11-17T03:20:23.117Z,86.59
2022-11-17T03:22:58.148Z,86.82
2022-11-17T03:25:28.050Z,86.66
2022-11-17T03:28:00.331Z,86.65
2022-11-17T03:30:36.268Z,86.42
2022-11-17T03:33:11.548Z,87.36
2022-11-17T03:35:44.011Z,86.57
2022-11-17T03:38:19.676Z,86.57
2022-11-17T03:40:51.831Z,87.29
2022-11-17T03:43:21.427Z,86.42
2022-11-17T03:45:52.303Z,86.18
2022-11-17T03:48:25.658Z,86.42
2022-11-17T03:51:00.752Z,86.41
2022-11-17T03:53:30.609Z,86.99
2022-11-17T03:56:03.679Z,87.10
2022-11-17T03:58:37.762Z,86.72
2022-11-17T04:01:09.099Z,87.30
2022-11-17T04:03:38.245Z,86.56
2022-11-17T04:06:06.787Z,86.44
2022-11-17T04:08:34.526Z,85.75
2022-11-17T04:11:19.784Z,85.73
2022-11-17T04:14:05.275Z,85.55
2022-11-17T04:16:34.379Z,85.45
2022-11-17T04:19:02.094Z,84.72
2022-11-17T04:21:29.787Z,84.62
2022-11-17T04:23:57.871Z,84.76
2022-11-17T04:26:43.714Z,84.26
2022-11-17T04:29:11.471Z,84.59
2022-11-17T04:31:40.642Z,85.04
2022-11-17T04:34:08.357Z,84.92
2022-11-17T04:36:40.519Z,84.45
2022-11-17T04:39:08.278Z,83.86
2022-11-17T04:41:53.780Z,84.47
2022-11-17T04:44:23.410Z,84.49
2022-11-17T04:46:53.007Z,84.75
2022-11-17T04:49:21.755Z,83.70
2022-11-17T04:51:50.151Z,83.95
2022-11-17T04:54:19.944Z,83.94
2022-11-17T04:56:51.473Z,83.40
2022-11-17T04:59:19.340Z,83.73
2022-11-17T05:01:47.368Z,84.30
2022-11-17T05:04:39.219Z,85.10
2022-11-17T05:07:08.146Z,83.11
2022-11-17T05:09:36.489Z,83.67
2022-11-17T05:12:22.139Z,83.69
2022-11-17T05:14:50.519Z,83.44
2022-11-17T05:17:17.839Z,83.99
2022-11-17T05:19:48.722Z,84.12
2022-11-17T05:22:36.370Z,83.40
2022-11-17T05:25:05.577Z,83.01
2022-11-17T05:27:34.296Z,83.90
2022-11-17T05:30:02.149Z,83.89
2022-11-17T05:32:29.975Z,84.25
2022-11-17T05:34:59.226Z,85.25
2022-11-17T05:37:27.062Z,86.41
2022-11-17T05:39:54.940Z,86.61
2022-11-17T05:42:22.702Z,87.43
2022-11-17T05:44:50.461Z,87.81
2022-11-17T05:47:18.306Z,88.31
2022-11-17T05:49:46.042Z,87.82
2022-11-17T05:52:15.149Z,88.67
2022-11-17T05:54:43.120Z,89.87
2022-11-17T05:57:16.137Z,89.38
2022-11-17T05:59:46.812Z,89.81
2022-11-17T06:02:19.602Z,89.88
2022-11-17T06:04:50.404Z,89.92
2022-11-17T06:07:20.690Z,91.16
2022-11-17T06:09:53.062Z,90.66
2022-11-17T06:12:20.880Z,91.68
2022-11-17T06:14:48.648Z,91.78
2022-11-17T06:17:22.759Z,90.91
2022-11-17T06:19:56.095Z,90.91
2022-11-17T06:22:26.419Z,90.93
2022-11-17T06:24:55.261Z,91.79
2022-11-17T06:27:25.452Z,91.47
2022-11-17T06:29:54.814Z,90.98
2022-11-17T06:32:22.852Z,91.85
2022-11-17T06:34:55.609Z,91.32
2022-11-17T06:37:26.299Z,91.11
2022-11-17T06:39:54.884Z,90.77
2022-11-17T06:42:44.263Z,90.21
2022-11-17T06:45:12.948Z,90.14
2022-11-17T06:47:41.211Z,90.47
2022-11-17T06:50:09.559Z,90.38
2022-11-17T06:52:38.993Z,90.42
2022-11-17T06:55:08.593Z,89.96
2022-11-17T06:57:36.445Z,89.86
2022-11-17T07:00:06.003Z,89.96
2022-11-17T07:02:34.001Z,89.96
2022-11-17T07:05:01.997Z,89.71
2022-11-17T07:07:29.925Z,89.22
2022-11-17T07:09:59.200Z,90.43
2022-11-17T07:12:28.582Z,90.19
2022-11-17T07:14:56.700Z,88.85
2022-11-17T07:17:24.621Z,89.40
2022-11-17T07:19:53.563Z,88.87
2022-11-17T07:22:21.433Z,89.44
2022-11-17T07:24:49.374Z,89.73
2022-11-17T07:27:18.791Z,89.74
2022-11-17T07:29:46.772Z,90.01
2022-11-17T07:32:14.857Z,89.28
2022-11-17T07:34:42.719Z,89.70
2022-11-17T07:37:10.672Z,89.24
2022-11-17T07:39:38.483Z,88.28
2022-11-17T07:42:06.588Z,88.71
2022-11-17T07:44:36.205Z,88.54
2022-11-17T07:47:04.163Z,88.43
2022-11-17T07:49:32.194Z,87.82
2022-11-17T07:52:00.028Z,87.06
2022-11-17T07:54:27.890Z,87.34
2022-11-17T07:56:55.730Z,86.72
2022-11-17T07:59:23.790Z,85.89
2022-11-17T08:01:52.983Z,85.95
2022-11-17T08:04:20.902Z,85.29
2022-11-17T08:06:48.981Z,84.38
2022-11-17T08:09:17.379Z,83.94
2022-11-17T08:11:45.269Z,84.00
2022-11-17T08:14:13.130Z,83.29
2022-11-17T08:16:41.027Z,82.98
2022-11-17T08:19:11.912Z,82.49
2022-11-17T08:21:41.075Z,82.06
2022-11-17T08:24:09.551Z,82.43
2022-11-17T08:26:37.357Z,82.30
2022-11-17T08:29:05.287Z,81.62
2022-11-17T08:31:33.879Z,82.17
2022-11-17T08:34:01.683Z,81.04
2022-11-17T08:36:30.835Z,81.09
2022-11-17T08:38:58.894Z,80.91
2022-11-17T08:41:27.108Z,80.06
2022-11-17T08:43:55.029Z,80.36
2022-11-17T08:46:23.039Z,79.15
2022-11-17T08:48:53.877Z,79.18
2022-11-17T08:51:25.108Z,78.73
2022-11-17T08:53:54.261Z,78.12
2022-11-17T08:56:22.239Z,77.80
2022-11-17T08:58:50.077Z,77.79
2022-11-17T09:01:18.301Z,76.39
2022-11-17T09:03:48.419Z,76.34
2022-11-17T09:06:17.243Z,75.82
2022-11-17T09:08:47.012Z,74.75
2022-11-17T09:11:16.990Z,74.66
2022-11-17T09:13:45.815Z,75.77
2022-11-17T09:16:14.303Z,73.23
2022-11-17T09:18:42.348Z,74.45
2022-11-17T09:21:12.589Z,73.71
2022-11-17T09:23:40.753Z,73.45
2022-11-17T09:26:10.623Z,73.99
2022-11-17T09:28:40.229Z,74.16
2022-11-17T09:31:09.634Z,73.78
2022-11-17T09:33:37.791Z,74.00
2022-11-17T09:36:07.343Z,74.64
2022-11-17T09:38:35.875Z,75.16
2022-11-17T09:41:13.115Z,74.96
2022-11-17T09:43:48.010Z,74.21
2022-11-17T09:46:22.405Z,74.33
2022-11-17T09:48:58.318Z,73.06
2022-11-17T09:51:28.779Z,72.49
2022-11-17T09:54:02.727Z,71.75
2022-11-17T09:56:31.798Z,72.38
2022-11-17T09:59:05.359Z,71.82
2022-11-17T10:01:33.310Z,71.60
2022-11-17T10:04:01.498Z,72.08
2022-11-17T10:06:31.306Z,72.07
2022-11-17T10:09:02.809Z,71.93
2022-11-17T10:11:33.294Z,73.50
2022-11-17T10:14:14.040Z,72.41
2022-11-17T10:16:44.351Z,71.66
2022-11-17T10:19:17.032Z,71.68
2022-11-17T10:21:45.344Z,72.32
2022-11-17T10:24:33.688Z,71.85
2022-11-17T10:27:02.139Z,73.00
2022-11-17T10:29:31.382Z,73.53
2022-11-17T10:31:59.796Z,73.39
2022-11-17T10:34:40.189Z,72.80
2022-11-17T10:37:25.299Z,73.10
2022-11-17T10:40:13.760Z,73.13
2022-11-17T10:42:44.835Z,72.20
2022-11-17T10:45:18.966Z,73.01
2022-11-17T10:47:46.901Z,73.35
2022-11-17T10:50:24.775Z,72.41
2022-11-17T10:52:54.106Z,72.26
2022-11-17T10:55:27.743Z,72.67
2022-11-17T10:57:59.769Z,71.25
2022-11-17T11:00:32.237Z,72.83
2022-11-17T11:03:18.402Z,72.47
2022-11-17T11:06:02.432Z,71.82
2022-11-17T11:08:37.242Z,72.87
2022-11-17T11:11:12.599Z,71.34
2022-11-17T11:13:46.884Z,71.95
2022-11-17T11:16:16.043Z,71.87
2022-11-17T11:18:43.862Z,71.99
2022-11-17T11:21:19.219Z,72.75
2022-11-17T11:23:55.034Z,72.93
2022-11-17T11:26:42.270Z,73.33
2022-11-17T11:29:18.203Z,72.64
2022-11-17T11:31:59.105Z,73.48
2022-11-17T11:34:53.175Z,74.17
2022-11-17T11:37:23.349Z,77.19
2022-11-17T11:39:58.879Z,80.04
2022-11-17T11:42:47.811Z,81.74
2022-11-17T11:45:24.157Z,82.71
2022-11-17T11:48:14.810Z,83.01
2022-11-17T11:50:51.765Z,82.83
2022-11-17T11:53:26.172Z,82.87
2022-11-17T11:56:08.615Z,82.48
2022-11-17T11:58:43.835Z,80.30
2022-11-17T12:01:13.664Z,80.00
2022-11-17T12:03:49.259Z,79.33
2022-11-17T12:06:43.918Z,78.49
2022-11-17T12:09:29.787Z,79.09
2022-11-17T12:12:02.417Z,77.96
2022-11-17T12:14:32.097Z,77.76
2022-11-17T12:17:07.411Z,78.17
2022-11-17T12:19:51.156Z,77.88
2022-11-17T12:22:42.620Z,76.74
2022-11-17T12:25:18.205Z,75.97
2022-11-17T12:27:48.663Z,74.92
2022-11-17T12:30:54.635Z,73.66
2022-11-17T12:33:23.450Z,72.46
2022-11-17T12:36:30.910Z,72.52
2022-11-17T12:39:01.684Z,71.77
2022-11-17T12:42:07.647Z,71.76
2022-11-17T12:45:02.034Z,71.13
2022-11-17T12:47:33.458Z,72.24
2022-11-17T12:50:28.138Z,70.89
2022-11-17T12:53:19.479Z,70.67
2022-11-17T12:56:21.297Z,72.68
2022-11-17T12:59:17.014Z,71.26
2022-11-17T13:01:52.823Z,70.78
2022-11-17T13:04:26.044Z,70.64
2022-11-17T13:07:02.103Z,71.41
2022-11-17T13:09:31.282Z,71.56
2022-11-17T13:12:02.187Z,70.94
2022-11-17T13:14:31.764Z,71.47
2022-11-17T13:17:01.373Z,72.00
2022-11-17T13:19:33.767Z,71.55
2022-11-17T13:22:03.671Z,72.57
2022-11-17T13:24:34.399Z,72.83
2022-11-17T13:27:07.363Z,72.85
2022-11-17T13:29:35.472Z,73.65
2022-11-17T13:32:23.167Z,72.42
2022-11-17T13:34:53.477Z,73.90
2022-11-17T13:37:23.291Z,73.46
2022-11-17T13:40:00.219Z,72.74
2022-11-17T13:42:32.310Z,73.74
2022-11-17T13:45:03.633Z,74.61
2022-11-17T13:47:46.798Z,74.62
2022-11-17T13:50:33.821Z,75.60
2022-11-17T13:53:05.726Z,74.97
2022-11-17T13:55:34.690Z,74.98
2022-11-17T13:58:08.149Z,74.99
2022-11-17T14:00:36.721Z,74.44
2022-11-17T14:03:07.095Z,74.91
2022-11-17T14:05:35.107Z,73.93
2022-11-17T14:08:14.092Z,74.77
2022-11-17T14:10:42.685Z,74.75
2022-11-17T14:13:24.213Z,75.00
2022-11-17T14:15:55.232Z,75.54
2022-11-17T14:18:28.967Z,74.98
2022-11-17T14:21:11.837Z,75.21
2022-11-17T14:23:40.312Z,74.49
2022-11-17T14:26:18.350Z,73.74
2022-11-17T14:28:48.620Z,74.04
2022-11-17T14:31:17.203Z,73.30
2022-11-17T14:33:45.159Z,73.44
2022-11-17T14:36:15.836Z,73.13
2022-11-17T14:38:44.711Z,73.36
2022-11-17T14:41:12.596Z,73.89
2022-11-17T14:43:40.493Z,73.36
2022-11-17T14:46:16.305Z,74.58
2022-11-17T14:48:44.188Z,74.81
2022-11-17T14:51:12.197Z,74.72
2022-11-17T14:53:42.019Z,78.12
2022-11-17T14:56:11.124Z,79.93
2022-11-17T14:58:39.007Z,81.23
2022-11-17T15:01:13.063Z,82.15
2022-11-17T15:03:40.951Z,81.67
2022-11-17T15:06:12.064Z,81.66
2022-11-17T15:08:41.804Z,81.71
2022-11-17T15:11:14.755Z,81.52
2022-11-17T15:13:42.566Z,84.93
2022-11-17T15:16:12.533Z,86.77
2022-11-17T15:18:40.303Z,87.35
2022-11-17T15:21:33.776Z,88.82
2022-11-17T15:24:03.299Z,88.43
2022-11-17T15:26:31.430Z,87.43
2022-11-17T15:28:59.248Z,89.67
2022-11-17T15:31:28.787Z,88.44
2022-11-17T15:33:56.665Z,88.43
2022-11-17T15:36:25.206Z,88.09
2022-11-17T15:38:54.060Z,89.59
2022-11-17T15:41:22.235Z,89.00
2022-11-17T15:43:50.036Z,89.55
2022-11-17T15:46:19.888Z,89.35
2022-11-17T15:48:52.294Z,89.18
2022-11-17T15:51:22.073Z,89.36
2022-11-17T15:53:52.100Z,89.48
2022-11-17T15:56:21.658Z,89.11
2022-11-17T15:58:55.686Z,89.09
2022-11-17T16:01:28.169Z,89.71
2022-11-17T16:04:01.346Z,89.19
2022-11-17T16:06:29.195Z,89.36
2022-11-17T16:08:57.520Z,89.45
2022-11-17T16:11:26.864Z,90.16
2022-11-17T16:13:55.380Z,89.64
2022-11-17T16:16:24.239Z,89.75
2022-11-17T16:18:52.147Z,89.87
2022-11-17T16:21:21.470Z,89.26
2022-11-17T16:23:51.612Z,90.01
2022-11-17T16:26:20.512Z,89.97
2022-11-17T16:28:48.714Z,89.57
2022-11-17T16:31:19.322Z,90.19
2022-11-17T16:33:51.451Z,90.27
2022-11-17T16:36:21.914Z,89.09
2022-11-17T16:39:13.331Z,90.13
2022-11-17T16:41:42.817Z,89.56
2022-11-17T16:44:12.562Z,89.44
2022-11-17T16:46:43.257Z,90.36
2022-11-17T16:49:24.432Z,90.15
2022-11-17T16:51:54.797Z,90.42
2022-11-17T16:54:26.121Z,89.87
2022-11-17T16:56:54.361Z,89.86
2022-11-17T16:59:22.700Z,89.49
2022-11-17T17:01:50.536Z,89.96
2022-11-17T17:04:18.483Z,90.13
2022-11-17T17:06:46.533Z,90.31
2022-11-17T17:09:17.188Z,90.46
2022-11-17T17:11:46.094Z,88.99
2022-11-17T17:14:15.734Z,89.84
2022-11-17T17:16:44.165Z,90.30
2022-11-17T17:19:14.084Z,89.65
2022-11-17T17:21:43.194Z,90.37
2022-11-17T17:24:11.808Z,89.39
2022-11-17T17:26:41.170Z,89.48
2022-11-17T17:29:09.461Z,90.08
2022-11-17T17:31:39.308Z,89.81
2022-11-17T17:34:08.496Z,89.47
2022-11-17T17:36:38.407Z,89.96
2022-11-17T17:39:07.642Z,90.04
2022-11-17T17:41:41.882Z,90.31
2022-11-17T17:44:15.961Z,90.61
2022-11-17T17:46:47.196Z,90.88
2022-11-17T17:49:15.873Z,90.17
2022-11-17T17:51:45.333Z,90.96
2022-11-17T17:54:16.838Z,91.81
2022-11-17T17:56:45.487Z,91.55
2022-11-17T17:59:15.955Z,91.71
2022-11-17T18:01:46.016Z,91.35
2022-11-17T18:04:16.178Z,91.10
2022-11-17T18:06:47.329Z,91.57
2022-11-17T18:09:19.057Z,91.16
2022-11-17T18:11:49.558Z,90.57
2022-11-17T18:14:23.799Z,90.62
2022-11-17T18:16:52.576Z,91.87
2022-11-17T18:19:20.722Z,91.42
2022-11-17T18:21:48.954Z,92.53
2022-11-17T18:24:24.179Z,92.73
2022-11-17T18:26:53.793Z,92.64
2022-11-17T18:29:26.810Z,92.37
2022-11-17T18:31:59.553Z,92.12
2022-11-17T18:34:34.151Z,92.40
2022-11-17T18:37:06.360Z,91.50
2022-11-17T18:39:34.727Z,92.08
2022-11-17T18:42:02.709Z,91.81
2022-11-17T18:44:32.064Z,92.91
2022-11-17T18:47:02.999Z,91.77
2022-11-17T18:49:31.753Z,92.28
2022-11-17T18:51:59.621Z,91.83
2022-11-17T18:54:27.485Z,92.64
2022-11-17T18:56:56.231Z,92.35
2022-11-17T18:59:24.220Z,95.23
2022-11-17T19:01:53.672Z,92.91
2022-11-17T19:04:21.630Z,93.96
2022-11-17T19:06:50.236Z,92.44
2022-11-17T19:09:18.624Z,91.23
2022-11-17T19:11:47.115Z,91.89
2022-11-17T19:14:15.074Z,91.84
2022-11-17T19:16:45.459Z,91.76
2022-11-17T19:19:17.716Z,92.69
2022-11-17T19:21:46.136Z,93.74
2022-11-17T19:24:15.375Z,93.77
2022-11-17T19:26:43.387Z,93.65
2022-11-17T19:29:17.064Z,92.68
2022-11-17T19:31:45.681Z,93.58
2022-11-17T19:34:15.179Z,93.18
2022-11-17T19:36:44.480Z,93.22
2022-11-17T19:39:13.502Z,93.97
2022-11-17T19:41:41.767Z,94.28
2022-11-17T19:44:10.347Z,93.88
2022-11-17T19:46:38.951Z,93.95
2022-11-17T19:49:08.799Z,94.04
2022-11-17T19:51:38.628Z,93.47
2022-11-17T19:54:08.669Z,93.78
2022-11-17T19:56:38.301Z,93.41
2022-11-17T19:59:15.359Z,93.91
2022-11-17T20:01:44.453Z,93.31
2022-11-17T20:04:12.599Z,92.77
2022-11-17T20:06:41.822Z,93.29
2022-11-17T20:09:11.365Z,93.17
2022-11-17T20:11:39.542Z,93.15
2022-11-17T20:14:07.795Z,92.95
2022-11-17T20:16:36.747Z,92.68
2022-11-17T20:19:04.700Z,92.19
2022-11-17T20:21:33.650Z,91.72
2022-11-17T20:24:03.296Z,92.60
2022-11-17T20:26:33.155Z,92.92
2022-11-17T20:29:01.997Z,92.50
2022-11-17T20:31:32.451Z,92.09
2022-11-17T20:34:01.487Z,92.05
2022-11-17T20:36:30.831Z,91.15
2022-11-17T20:39:01.254Z,92.24
2022-11-17T20:41:30.819Z,93.06
2022-11-17T20:44:00.413Z,93.16
2022-11-17T20:46:29.117Z,93.26
2022-11-17T20:48:56.978Z,93.12
2022-11-17T20:51:26.212Z,93.53
2022-11-17T20:53:54.570Z,92.93
2022-11-17T20:56:22.753Z,93.92
2022-11-17T20:58:52.029Z,93.16
2022-11-17T21:01:24.001Z,93.53
2022-11-17T21:03:52.143Z,93.62
2022-11-17T21:06:22.856Z,93.38
2022-11-17T21:08:50.790Z,92.93
2022-11-17T21:11:34.320Z,92.73
2022-11-17T21:14:04.755Z,92.83
2022-11-17T21:16:33.232Z,93.47
2022-11-17T21:19:01.159Z,93.15
2022-11-17T21:21:29.512Z,93.10
2022-11-17T21:23:57.535Z,93.58
2022-11-17T21:26:25.447Z,93.09
2022-11-17T21:28:53.734Z,92.48
2022-11-17T21:31:24.837Z,92.96
2022-11-17T21:33:54.677Z,92.61
2022-11-17T21:36:24.611Z,92.26
2022-11-17T21:38:52.939Z,92.30
2022-11-17T21:41:22.994Z,92.14
2022-11-17T21:43:52.842Z,92.41
2022-11-17T21:46:23.658Z,93.05
2022-11-17T21:48:52.774Z,91.94
2022-11-17T21:51:22.165Z,92.47
2022-11-17T21:53:53.965Z,92.09
2022-11-17T21:56:26.181Z,92.51
2022-11-17T21:58:55.647Z,92.52
2022-11-17T22:01:27.850Z,92.57
2022-11-17T22:03:56.530Z,92.28
2022-11-17T22:06:25.635Z,91.96
2022-11-17T22:08:57.163Z,91.45
2022-11-17T22:11:36.691Z,91.64
2022-11-17T22:14:07.418Z,92.22
2022-11-17T22:16:38.277Z,91.97
2022-11-17T22:19:08.063Z,92.30
2022-11-17T22:21:36.503Z,92.12
2022-11-17T22:24:04.980Z,91.82
2022-11-17T22:26:35.695Z,91.32
2022-11-17T22:29:03.735Z,91.99
2022-11-17T22:31:31.921Z,91.86
2022-11-17T22:34:01.122Z,90.63
2022-11-17T22:36:29.011Z,91.85
2022-11-17T22:38:56.856Z,91.61
2022-11-17T22:41:25.203Z,92.15
2022-11-17T22:43:54.736Z,92.05
2022-11-17T22:46:24.604Z,91.96
2022-11-17T22:48:53.139Z,91.52
2022-11-17T22:51:36.583Z,91.68
2022-11-17T22:54:04.818Z,91.51
2022-11-17T22:56:33.501Z,92.42
2022-11-17T22:59:01.626Z,91.69
2022-11-17T23:01:29.989Z,92.17
2022-11-17T23:03:58.155Z,91.76
2022-11-17T23:06:28.475Z,91.51
2022-11-17T23:08:57.986Z,91.21
2022-11-17T23:11:42.335Z,91.41
2022-11-17T23:14:12.542Z,91.62
2022-11-17T23:16:41.157Z,91.10
2022-11-17T23:19:12.281Z,91.43
2022-11-17T23:21:43.242Z,91.13
2022-11-17T23:24:12.725Z,91.32
2022-11-17T23:26:41.000Z,91.82
2022-11-17T23:29:10.330Z,91.68
2022-11-17T23:31:38.222Z,92.08
2022-11-17T23:34:06.068Z,91.15
2022-11-17T23:36:34.294Z,90.94
2022-11-17T23:39:04.507Z,91.82
2022-11-17T23:41:32.919Z,91.38
2022-11-17T23:44:01.680Z,92.11
2022-11-17T23:46:29.933Z,92.29
2022-11-17T23:48:58.444Z,91.83
2022-11-17T23:51:29.751Z,92.06
2022-11-17T23:53:59.177Z,91.67
2022-11-17T23:56:33.716Z,91.99
2022-11-17T23:59:04.512Z,92.44
